LKNA

Náměšť Air Base Airport

Náměšť, Czech Republic
TAF LKNA 230500Z 2306/2406 VRB02KT CAVOK BECMG 2310/2312 29010KT TEMPO 2315/2404 33012G24KT 7000 SHRA SCT035TCU PROB30 2316/2321 33018G36KT 3000 TSRA SCT030CB BECMG 2321/2323 30006KT
Issued Valid From Valid To
Apr-23 @ 05:00 UTC
(4 hours ago)
Apr-23 @ 06:00 UTC
(3 hours ago)
Apr-24 @ 06:00 UTC
(in 21 hours)
Apr-23 @ 06:00 to Apr-23 @ 10:00
TAF LKNA 230500Z 2306/2406 VRB02KT CAVOK
Wind Visibility Clouds Conditions
Variable at 2 knots 10,000+ meters
  • No significant clouds
Becoming Apr-23 @ 10:00 to Apr-23 @ 21:00
BECMG 2310/2312 29010KT
Wind Visibility Clouds Conditions
290° at 10 knots 10,000+ meters
  • No significant clouds
Temporary Apr-23 @ 15:00 to Apr-24 @ 04:00
TEMPO 2315/2404 33012G24KT 7000 SHRA SCT035TCU
Wind Visibility Clouds Conditions
330° at 12 knots
 Gusting to 24 knots
7,001 meters
  • Scattered at 3,500' AGL
  • Rain
Probable  (Probability 30%) Apr-23 @ 16:00 to Apr-23 @ 21:00
PROB30 2316/2321 33018G36KT 3000 TSRA SCT030CB
Wind Visibility Clouds Conditions
330° at 18 knots
 Gusting to 36 knots
2,993 meters
  • Scattered at 3,000' AGL
  • Thunderstorm
  • Rain
Becoming Apr-23 @ 21:00 to Apr-24 @ 06:00
BECMG 2321/2323 30006KT
Wind Visibility Clouds Conditions
300° at 6 knots 10,000+ meters
  • No significant clouds
TAF LKNA 230500Z 2306/2406 VRB02KT CAVOK BECMG 2310/2312 29010KT TEMPO 2315/2404 33012G24KT 7000 SHRA SCT035TCU PROB30 2316/2321 33018G36KT 3000 TSRA SCT030CB BECMG 2321/2323 30006KT
Issued Apr-23 @ 05:00 UTC
(4 hours ago)
Valid From Apr-23 @ 06:00 UTC
(3 hours ago)
Valid To Apr-24 @ 06:00 UTC
(in 21 hours)
Apr-23 @ 06:00 - Apr-23 @ 10:00
Wind Visibility
Variable at 2 knots 10,000+ meters
Clouds
  • No significant clouds
Conditions
Becoming Apr-23 @ 10:00 - Apr-23 @ 21:00
Wind Visibility
290° at 10 knots 10,000+ meters
Clouds
  • No significant clouds
Conditions
Temporary Apr-23 @ 15:00 - Apr-24 @ 04:00
Wind Visibility
330° at 12 knots
 Gusting to 24 knots
7,001 meters
Clouds
  • Scattered at 3,500' AGL
Conditions
  • Rain
Probability 30% Probable Apr-23 @ 16:00 - Apr-23 @ 21:00
Wind Visibility
330° at 18 knots
 Gusting to 36 knots
2,993 meters
Clouds
  • Scattered at 3,000' AGL
Conditions
  • Thunderstorm
  • Rain
Becoming Apr-23 @ 21:00 - Apr-24 @ 06:00
Wind Visibility
300° at 6 knots 10,000+ meters
Clouds
  • No significant clouds
Conditions